Terminal Aerodrome Forecast
Issued by NWS

Home | Current Version | Previous Version | Text Only | Print | Product List | Glossary On
Versions: 1 2 3 4 5 6 7 8 9 10 11 12 13 14 15 16 17 18 19 20
000
FTAK31 PAFA 171028 AAD
TAFAFA
TAF AMD
PAFA 171028Z 1710/1812 21008G18KT 3/4SM -SN BLSN BKN004 OVC010
     FM171200 21006KT 2SM -SN BR BKN015 OVC025
     FM171500 24006KT 6SM -SHSN BR BKN025 BKN035 OVC050=

USA.gov is the U.S. government's official web portal to all federal, state and local government web resources and services.